Time;durP1;ratioP1;P1;durP2;ratioP2;P2;SDS_P1;SDS_P2;PMS_P1;PMS_P2;Temp;Humidity;BMP_temperature;BMP_pressure;BME280_temperature;BME280_humidity;BME280_pressure;Samples;Min_cycle;Max_cycle;Signal;HPM_P1;HPM_P2
2021/06/26 00:01:05;;;;;;;10.93;4.00;;;;;;;24.20;56.28;100274.61;1636183;85;39060;-71
2021/06/26 00:03:32;;;;;;;9.97;3.87;;;;;;;24.15;56.69;100278.17;1653630;85;21620;-72
2021/06/26 00:05:58;;;;;;;10.07;4.00;;;;;;;24.09;57.00;100273.01;1640974;85;21673;-71
2021/06/26 00:08:25;;;;;;;10.60;3.90;;;;;;;24.04;57.31;100278.72;1659936;84;21207;-71
2021/06/26 00:10:53;;;;;;;10.10;4.50;;;;;;;23.99;57.79;100272.77;1642630;86;21079;-72
2021/06/26 00:13:20;;;;;;;12.47;4.40;;;;;;;23.94;58.06;100280.64;1642169;86;21123;-71
2021/06/26 00:15:47;;;;;;;13.77;4.80;;;;;;;23.89;58.50;100264.55;1649642;85;21091;-70
2021/06/26 00:18:15;;;;;;;10.10;4.10;;;;;;;23.86;58.90;100268.77;1683602;82;21170;-71
2021/06/26 00:20:43;;;;;;;10.37;4.43;;;;;;;23.83;59.19;100267.33;1695234;83;21073;-70
2021/06/26 00:23:10;;;;;;;8.30;3.70;;;;;;;23.80;59.42;100272.13;1693980;83;21582;-71
2021/06/26 00:25:37;;;;;;;10.40;4.40;;;;;;;23.76;59.58;100275.34;1697402;82;21052;-70
2021/06/26 00:28:04;;;;;;;9.70;4.60;;;;;;;23.74;59.78;100278.98;1695353;82;21594;-71
2021/06/26 00:30:31;;;;;;;10.53;4.03;;;;;;;23.70;59.69;100274.81;1696126;83;21562;-72
2021/06/26 00:32:58;;;;;;;10.00;4.17;;;;;;;23.67;59.81;100272.75;1700075;84;21380;-71
2021/06/26 00:35:25;;;;;;;8.57;4.50;;;;;;;23.64;59.69;100272.88;1695497;84;21110;-70
2021/06/26 00:37:53;;;;;;;9.03;4.23;;;;;;;23.61;59.75;100276.31;1699350;82;21139;-71
2021/06/26 00:40:20;;;;;;;11.00;4.27;;;;;;;23.56;59.69;100273.86;1695795;83;21050;-71
2021/06/26 00:42:47;;;;;;;9.77;3.83;;;;;;;23.54;59.75;100268.53;1701849;84;21126;-71
2021/06/26 00:45:15;;;;;;;10.77;4.37;;;;;;;23.52;59.78;100266.14;1695634;82;21582;-71
2021/06/26 00:47:42;;;;;;;12.07;4.73;;;;;;;23.51;59.73;100256.39;1644990;85;21086;-71
2021/06/26 00:50:24;;;;;;;9.47;3.80;;;;;;;23.50;59.72;100259.48;1646934;85;21106;-72
2021/06/26 00:52:51;;;;;;;11.80;4.40;;;;;;;23.49;59.84;100259.23;1670943;85;21087;-71
2021/06/26 00:55:18;;;;;;;12.43;4.57;;;;;;;23.45;59.93;100257.00;1648938;86;21882;-71
2021/06/26 00:57:50;;;;;;;8.67;4.37;;;;;;;23.46;60.07;100264.03;1651257;85;21084;-71
2021/06/26 01:00:19;;;;;;;9.80;4.03;;;;;;;23.42;60.07;100262.58;1647898;84;21060;-71
2021/06/26 01:02:45;;;;;;;10.97;5.17;;;;;;;23.41;60.03;100261.00;1641893;85;21657;-70
2021/06/26 01:05:12;;;;;;;10.57;4.33;;;;;;;23.41;60.11;100259.64;1638885;86;21256;-70
2021/06/26 01:07:39;;;;;;;8.67;3.93;;;;;;;23.41;60.22;100261.80;1648424;85;21160;-71
2021/06/26 01:10:09;;;;;;;9.57;4.13;;;;;;;23.40;60.31;100262.94;1652429;85;21146;-71
2021/06/26 01:12:36;;;;;;;9.50;4.50;;;;;;;23.40;60.42;100264.88;1647289;85;21893;-71
2021/06/26 01:15:06;;;;;;;7.47;4.37;;;;;;;23.38;60.49;100265.22;1637297;86;21087;-70
2021/06/26 01:17:33;;;;;;;12.93;4.60;;;;;;;23.37;60.61;100265.58;1644307;85;21075;-71
2021/06/26 01:20:02;;;;;;;9.47;4.20;;;;;;;23.34;60.70;100260.25;1669632;84;21138;-71
2021/06/26 01:22:31;;;;;;;9.23;4.40;;;;;;;23.32;60.91;100260.38;1655353;85;21160;-72
2021/06/26 01:24:58;;;;;;;7.93;4.60;;;;;;;23.27;60.90;100255.98;1674159;83;21076;-70
2021/06/26 01:27:25;;;;;;;8.50;4.37;;;;;;;23.22;60.94;100261.68;1666299;85;21471;-71
2021/06/26 01:29:53;;;;;;;8.60;4.30;;;;;;;23.18;61.06;100260.22;1667811;84;21095;-71
2021/06/26 01:32:21;;;;;;;11.33;4.10;;;;;;;23.15;60.98;100266.37;1663270;85;21734;-71
2021/06/26 01:34:47;;;;;;;9.70;3.73;;;;;;;23.11;60.63;100266.85;1633229;86;21099;-72
2021/06/26 01:37:15;;;;;;;8.67;3.80;;;;;;;23.08;60.08;100273.00;1636557;85;21146;-72
2021/06/26 01:39:42;;;;;;;6.27;3.40;;;;;;;23.08;59.53;100269.48;1639062;85;21068;-71
2021/06/26 01:42:09;;;;;;;7.23;3.70;;;;;;;23.08;59.20;100268.13;1647314;85;21543;-71
2021/06/26 01:44:36;;;;;;;11.23;3.67;;;;;;;23.08;58.94;100264.03;1647055;86;21183;-70
2021/06/26 01:47:06;;;;;;;5.40;3.03;;;;;;;23.08;58.73;100258.02;1625347;85;21535;-72
2021/06/26 01:49:33;;;;;;;8.80;3.50;;;;;;;23.06;58.45;100250.75;1644672;85;21479;-71
2021/06/26 01:52:00;;;;;;;7.10;3.20;;;;;;;23.07;58.42;100252.92;1641590;85;22554;-70
2021/06/26 01:54:26;;;;;;;8.73;3.60;;;;;;;23.05;58.36;100248.38;1634900;86;21218;-71
2021/06/26 01:56:53;;;;;;;8.23;3.10;;;;;;;23.03;58.33;100248.72;1679652;84;21660;-71
2021/06/26 01:59:20;;;;;;;7.53;3.17;;;;;;;23.01;58.26;100249.66;1647554;85;21084;-71
2021/06/26 02:01:46;;;;;;;7.50;2.80;;;;;;;22.99;58.35;100245.69;1703962;83;21147;-71
2021/06/26 02:04:13;;;;;;;7.33;3.27;;;;;;;22.97;58.43;100241.97;1685243;84;21637;-72
2021/06/26 02:06:40;;;;;;;7.33;3.40;;;;;;;22.96;58.53;100249.11;1701375;84;21102;-72
2021/06/26 02:09:07;;;;;;;7.17;3.17;;;;;;;22.92;58.59;100251.70;1681245;84;21127;-72
2021/06/26 02:11:35;;;;;;;7.50;3.30;;;;;;;22.88;58.66;100253.55;1698192;82;21060;-72
2021/06/26 02:14:02;;;;;;;5.47;3.10;;;;;;;22.86;58.76;100252.52;1643080;85;21639;-72
2021/06/26 02:16:28;;;;;;;8.97;3.40;;;;;;;22.83;58.85;100258.66;1672633;84;21046;-71
2021/06/26 02:18:56;;;;;;;8.07;3.47;;;;;;;22.82;58.88;100248.13;1671419;85;21107;-71
2021/06/26 02:21:23;;;;;;;7.67;3.23;;;;;;;22.81;58.95;100235.66;1657605;84;21155;-71
2021/06/26 02:23:50;;;;;;;6.87;3.07;;;;;;;22.80;59.06;100238.92;1669463;85;22171;-71
2021/06/26 02:26:17;;;;;;;7.00;3.00;;;;;;;22.79;59.13;100228.39;1672424;84;21130;-71
2021/06/26 02:28:43;;;;;;;7.03;3.07;;;;;;;22.78;59.19;100228.97;1680507;85;21059;-71
2021/06/26 02:31:10;;;;;;;8.87;3.10;;;;;;;22.78;59.27;100230.90;1661448;84;21115;-71
2021/06/26 02:33:37;;;;;;;8.20;3.23;;;;;;;22.77;59.37;100226.03;1674172;85;21151;-70
2021/06/26 02:36:05;;;;;;;8.13;3.73;;;;;;;22.77;59.61;100223.85;1668058;85;21094;-70
2021/06/26 02:38:32;;;;;;;6.50;3.10;;;;;;;22.76;59.62;100225.78;1654088;85;21128;-71
2021/06/26 02:40:59;;;;;;;6.57;3.73;;;;;;;22.77;59.80;100223.30;1663842;84;21224;-71
2021/06/26 02:43:25;;;;;;;6.47;3.13;;;;;;;22.80;59.91;100221.80;1661754;85;21063;-71
2021/06/26 02:45:53;;;;;;;8.80;3.60;;;;;;;22.83;60.17;100222.47;1667837;85;21574;-72
2021/06/26 02:48:21;;;;;;;5.80;3.00;;;;;;;22.82;60.04;100215.45;1664056;85;21448;-71
2021/06/26 02:50:49;;;;;;;10.27;3.47;;;;;;;22.82;59.93;100206.70;1642513;85;21585;-71
2021/06/26 02:53:16;;;;;;;8.17;3.80;;;;;;;22.82;59.87;100201.83;1666298;85;21595;-71
2021/06/26 02:55:43;;;;;;;10.57;4.30;;;;;;;22.82;59.96;100203.98;1671446;85;21017;-71
2021/06/26 02:58:09;;;;;;;7.87;3.63;;;;;;;22.83;60.07;100197.95;1666187;85;21591;-72
2021/06/26 03:00:37;;;;;;;7.73;3.97;;;;;;;22.84;60.13;100188.67;1664548;83;21087;-72
2021/06/26 03:03:04;;;;;;;12.33;3.83;;;;;;;22.86;60.11;100192.60;1644181;86;21118;-72
2021/06/26 03:05:31;;;;;;;9.57;4.47;;;;;;;22.87;60.03;100186.61;1632370;86;21063;-72
2021/06/26 03:07:59;;;;;;;8.40;3.80;;;;;;;22.89;60.10;100191.12;1638490;86;21071;-71
2021/06/26 03:10:25;;;;;;;14.40;4.60;;;;;;;22.88;60.22;100195.78;1664172;84;22159;-71
2021/06/26 03:12:54;;;;;;;7.80;3.97;;;;;;;22.89;60.24;100197.93;1668643;83;21745;-70
2021/06/26 03:15:21;;;;;;;9.63;3.90;;;;;;;22.92;60.45;100204.83;1646247;85;21147;-72
2021/06/26 03:17:47;;;;;;;6.07;3.87;;;;;;;22.96;60.57;100204.95;1670875;84;21093;-72
2021/06/26 03:20:14;;;;;;;7.87;3.67;;;;;;;22.97;60.55;100209.28;1661622;85;21562;-71
2021/06/26 03:22:40;;;;;;;7.77;4.30;;;;;;;22.99;60.75;100205.63;1658964;84;21111;-71
2021/06/26 03:25:09;;;;;;;7.43;3.40;;;;;;;23.00;60.90;100205.86;1657825;84;21095;-73
2021/06/26 03:27:38;;;;;;;10.43;4.00;;;;;;;23.00;60.69;100203.14;1665819;85;21080;-71
2021/06/26 03:30:06;;;;;;;9.20;4.10;;;;;;;22.99;60.69;100201.53;1658530;85;20977;-72
2021/06/26 03:32:33;;;;;;;9.37;4.23;;;;;;;23.01;60.82;100198.48;1668863;84;21072;-71
2021/06/26 03:35:00;;;;;;;9.13;4.33;;;;;;;23.06;60.95;100202.29;1647721;85;21702;-72
2021/06/26 03:37:27;;;;;;;7.47;4.00;;;;;;;23.10;60.90;100201.80;1640285;86;21119;-72
2021/06/26 03:39:54;;;;;;;10.00;4.23;;;;;;;23.15;60.87;100194.75;1644254;85;21071;-71
2021/06/26 03:42:21;;;;;;;7.10;4.00;;;;;;;23.21;60.80;100194.71;1644960;85;21497;-70
2021/06/26 03:44:48;;;;;;;8.03;4.10;;;;;;;23.27;60.77;100194.67;1681340;84;21129;-70
2021/06/26 03:47:15;;;;;;;8.17;4.13;;;;;;;23.36;60.88;100189.84;1671212;85;21908;-71
2021/06/26 03:49:42;;;;;;;7.07;4.33;;;;;;;23.47;60.40;100190.09;1650505;85;21600;-72
2021/06/26 03:52:09;;;;;;;8.27;4.07;;;;;;;23.55;60.28;100190.47;1622361;86;21103;-70
2021/06/26 03:54:36;;;;;;;10.87;4.60;;;;;;;23.63;59.88;100186.78;1649718;86;21448;-71
2021/06/26 03:57:04;;;;;;;8.87;4.63;;;;;;;23.71;59.85;100188.34;1647967;86;21100;-71
2021/06/26 03:59:30;;;;;;;8.67;4.60;;;;;;;23.79;59.68;100185.98;1652348;86;21160;-72
2021/06/26 04:01:57;;;;;;;10.83;4.67;;;;;;;23.84;59.62;100183.77;1668577;84;21120;-72
2021/06/26 04:04:24;;;;;;;8.37;4.60;;;;;;;23.88;59.07;100176.45;1665606;83;21096;-71
2021/06/26 04:06:51;;;;;;;8.53;4.90;;;;;;;23.90;59.00;100183.52;1643978;85;21135;-71
2021/06/26 04:09:17;;;;;;;9.53;4.70;;;;;;;23.94;59.14;100179.70;1646349;85;21068;-71
2021/06/26 04:11:44;;;;;;;10.77;4.63;;;;;;;24.02;58.90;100171.91;1650715;86;21377;-71
2021/06/26 04:14:10;;;;;;;7.90;4.60;;;;;;;24.09;58.84;100178.09;1656153;84;21052;-72
2021/06/26 04:16:37;;;;;;;10.07;4.73;;;;;;;24.14;58.65;100168.24;1646768;85;21699;-71
2021/06/26 04:19:05;;;;;;;11.83;5.00;;;;;;;24.20;58.33;100167.39;1639964;86;21072;-72
2021/06/26 04:21:32;;;;;;;7.20;4.50;;;;;;;24.23;58.25;100170.19;1645223;86;21099;-71
2021/06/26 04:23:58;;;;;;;7.33;4.23;;;;;;;24.29;58.50;100168.77;1664668;84;21141;-71
2021/06/26 04:26:25;;;;;;;8.47;4.70;;;;;;;24.39;58.38;100166.61;1640485;86;21083;-72
2021/06/26 04:28:52;;;;;;;9.47;4.63;;;;;;;24.49;57.91;100164.12;1643468;85;21099;-72
2021/06/26 04:31:18;;;;;;;9.67;4.90;;;;;;;24.59;57.90;100163.32;1646878;85;21120;-71
2021/06/26 04:33:45;;;;;;;8.97;4.40;;;;;;;24.68;57.42;100161.95;1639088;85;21594;-72
2021/06/26 04:36:14;;;;;;;8.17;4.77;;;;;;;24.80;57.96;100169.17;1643585;86;21179;-73
2021/06/26 04:38:41;;;;;;;8.70;4.63;;;;;;;24.93;57.96;100169.21;1676624;84;21052;-70
2021/06/26 04:41:08;;;;;;;9.77;4.57;;;;;;;25.08;57.62;100168.11;1678504;84;21028;-71
2021/06/26 04:43:35;;;;;;;11.33;5.00;;;;;;;25.22;57.56;100171.10;1678371;83;20995;-72
2021/06/26 04:46:02;;;;;;;10.33;4.80;;;;;;;25.36;57.48;100168.59;1639704;86;21116;-71
2021/06/26 04:48:29;;;;;;;10.33;4.43;;;;;;;25.48;56.59;100161.56;1648518;85;21122;-71
2021/06/26 04:50:56;;;;;;;7.57;4.80;;;;;;;25.58;55.93;100163.47;1651908;85;21111;-71
2021/06/26 04:53:23;;;;;;;9.20;5.47;;;;;;;25.64;55.69;100162.00;1658902;84;21123;-71
2021/06/26 04:55:52;;;;;;;6.63;4.43;;;;;;;25.67;55.27;100148.95;1648985;84;21067;-71
2021/06/26 04:58:22;;;;;;;8.57;4.60;;;;;;;25.69;55.42;100139.20;1637242;86;21071;-71
2021/06/26 05:00:50;;;;;;;8.47;4.80;;;;;;;25.72;56.02;100139.83;1635694;86;21233;-71
2021/06/26 05:03:20;;;;;;;9.00;4.20;;;;;;;25.76;55.59;100128.94;1644360;86;21591;-71
2021/06/26 05:05:49;;;;;;;6.33;4.30;;;;;;;25.83;55.81;100137.30;1686803;83;21051;-71
2021/06/26 05:08:16;;;;;;;10.03;5.07;;;;;;;25.89;55.90;100126.21;1703616;83;21060;-72
2021/06/26 05:10:44;;;;;;;9.80;5.33;;;;;;;25.91;55.56;100126.64;1698256;83;21032;-73
2021/06/26 05:13:11;;;;;;;8.57;4.87;;;;;;;25.96;55.95;100138.64;1712371;82;21170;-71
2021/06/26 05:15:39;;;;;;;9.77;5.50;;;;;;;26.04;55.38;100140.09;1692450;82;21560;-71
2021/06/26 05:18:06;;;;;;;11.23;4.97;;;;;;;26.09;55.17;100141.91;1668642;84;21745;-72
2021/06/26 05:20:33;;;;;;;8.83;5.33;;;;;;;26.17;55.39;100148.27;1699724;82;21136;-70
2021/06/26 05:23:16;;;;;;;10.03;5.10;;;;;;;26.25;54.79;100141.70;1701434;84;21896;-71
2021/06/26 05:25:43;;;;;;;10.67;5.47;;;;;;;26.30;54.43;100135.13;1694077;82;21872;-71
2021/06/26 05:28:10;;;;;;;12.90;5.63;;;;;;;26.35;54.57;100136.16;1694899;84;21052;-70
2021/06/26 05:30:37;;;;;;;10.40;4.93;;;;;;;26.45;54.51;100131.38;1690736;84;21115;-70
2021/06/26 05:33:04;;;;;;;9.10;5.10;;;;;;;26.55;55.18;100131.31;1699018;84;21044;-72
2021/06/26 05:35:31;;;;;;;10.13;5.03;;;;;;;26.65;54.64;100127.89;1693234;82;21350;-71
2021/06/26 05:37:58;;;;;;;10.50;5.40;;;;;;;26.80;54.29;100137.83;1697117;84;22190;-71
2021/06/26 05:40:25;;;;;;;10.33;5.17;;;;;;;26.98;54.25;100141.31;1697266;82;21146;-72
2021/06/26 05:42:51;;;;;;;8.57;5.37;;;;;;;27.15;53.39;100149.50;1692044;84;21096;-72
2021/06/26 05:45:19;;;;;;;8.43;5.10;;;;;;;27.23;52.94;100153.31;1699770;82;21052;-71
2021/06/26 05:47:46;;;;;;;9.17;5.27;;;;;;;27.32;53.23;100150.25;1695572;83;21103;-72
2021/06/26 05:50:13;;;;;;;9.50;5.37;;;;;;;27.45;53.35;100153.48;1694400;84;21799;-73
2021/06/26 05:52:50;;;;;;;8.23;5.40;;;;;;;27.53;52.82;100153.13;1687656;84;21090;-72
2021/06/26 05:55:17;;;;;;;10.93;5.13;;;;;;;27.58;53.26;100154.16;1682034;82;21705;-72
2021/06/26 05:57:44;;;;;;;7.17;5.20;;;;;;;27.63;53.32;100142.02;1700970;82;21099;-71
2021/06/26 06:00:12;;;;;;;13.07;5.43;;;;;;;27.65;52.67;100147.92;1681251;83;21067;-71
2021/06/26 06:02:44;;;;;;;8.50;5.53;;;;;;;27.65;52.53;100141.06;1697425;84;21793;-71
2021/06/26 06:05:16;;;;;;;7.13;5.13;;;;;;;27.62;52.34;100137.72;1698587;82;21076;-72
2021/06/26 06:07:42;;;;;;;10.27;5.50;;;;;;;27.59;52.36;100137.11;1694521;82;21413;-72
2021/06/26 06:10:11;;;;;;;8.90;5.27;;;;;;;27.52;52.78;100141.18;1701111;83;21139;-72
2021/06/26 06:12:38;;;;;;;10.90;5.23;;;;;;;27.50;52.49;100139.39;1697867;82;21051;-71
2021/06/26 06:15:11;;;;;;;11.60;5.80;;;;;;;27.45;52.59;100141.92;1703689;83;21117;-71
2021/06/26 06:17:38;;;;;;;9.90;5.67;;;;;;;27.38;53.24;100138.32;1698916;82;21702;-71
2021/06/26 06:20:07;;;;;;;7.63;5.17;;;;;;;27.38;53.31;100139.69;1642592;85;21519;-72
2021/06/26 06:22:35;;;;;;;9.30;5.75;;;;;;;27.47;53.82;100133.30;1670599;84;21132;-72
2021/06/26 06:25:06;;;;;;;10.50;5.13;;;;;;;27.52;52.98;100125.50;1672666;84;21645;-72
2021/06/26 06:27:35;;;;;;;11.03;5.67;;;;;;;27.56;52.84;100127.68;1647279;84;21574;-72
2021/06/26 06:30:04;;;;;;;11.47;6.00;;;;;;;27.60;52.42;100126.33;1657044;86;21057;-71
2021/06/26 06:32:31;;;;;;;12.00;5.47;;;;;;;27.64;52.61;100128.53;1703648;83;21567;-72
2021/06/26 06:34:58;;;;;;;8.70;5.67;;;;;;;27.73;52.86;100130.91;1698218;82;21064;-73
2021/06/26 06:37:27;;;;;;;10.00;5.57;;;;;;;27.80;52.71;100130.97;1697113;82;21578;-72
2021/06/26 06:39:53;;;;;;;9.83;5.90;;;;;;;27.90;53.63;100131.61;1686764;83;21175;-73
2021/06/26 06:42:20;;;;;;;8.60;5.20;;;;;;;27.99;53.16;100127.15;1670464;82;21118;-72
2021/06/26 06:44:47;;;;;;;8.13;5.73;;;;;;;28.10;53.29;100132.67;1709850;82;21728;-73
2021/06/26 06:47:14;;;;;;;8.73;5.97;;;;;;;28.16;53.25;100133.29;1708814;81;21062;-71
2021/06/26 06:49:40;;;;;;;8.20;5.50;;;;;;;28.19;53.76;100127.02;1713912;83;22206;-72
2021/06/26 06:52:07;;;;;;;12.50;5.87;;;;;;;28.20;52.44;100128.62;1712079;83;21137;-72
2021/06/26 06:54:34;;;;;;;10.97;5.60;;;;;;;28.19;52.55;100128.98;1709889;83;21116;-72
2021/06/26 06:57:01;;;;;;;7.87;5.07;;;;;;;28.19;52.05;100127.62;1693139;82;21646;-73
2021/06/26 06:59:27;;;;;;;8.97;5.77;;;;;;;28.18;51.99;100126.84;1693647;82;21051;-72
2021/06/26 07:01:55;;;;;;;8.10;5.20;;;;;;;28.21;52.35;100135.67;1691185;84;21083;-71
2021/06/26 07:04:21;;;;;;;9.57;5.67;;;;;;;28.24;52.14;100128.63;1700061;84;21112;-72
2021/06/26 07:06:50;;;;;;;12.23;6.00;;;;;;;28.26;52.74;100129.79;1697257;82;21067;-72
2021/06/26 07:09:18;;;;;;;11.10;5.73;;;;;;;28.26;52.55;100131.16;1693881;84;21215;-71
2021/06/26 07:11:45;;;;;;;8.90;6.23;;;;;;;28.22;52.64;100126.25;1699006;82;21116;-73
2021/06/26 07:14:12;;;;;;;9.40;5.77;;;;;;;28.25;53.12;100120.58;1701016;82;21733;-72
2021/06/26 07:16:40;;;;;;;8.87;5.87;;;;;;;28.28;52.65;100121.18;1698140;82;21039;-72
2021/06/26 07:19:07;;;;;;;8.20;6.30;;;;;;;28.34;52.32;100116.11;1690064;82;21046;-72
2021/06/26 07:21:33;;;;;;;11.03;5.80;;;;;;;28.45;52.88;100114.97;1690932;84;21076;-70
2021/06/26 07:24:00;;;;;;;7.77;5.10;;;;;;;28.56;52.27;100114.98;1692400;84;21679;-72
2021/06/26 07:26:28;;;;;;;9.03;5.80;;;;;;;28.67;52.01;100113.65;1689912;84;21025;-73
2021/06/26 07:28:55;;;;;;;9.23;5.40;;;;;;;28.75;51.16;100111.87;1687556;82;21148;-72
2021/06/26 07:31:21;;;;;;;9.10;5.70;;;;;;;28.84;51.13;100106.00;1692842;84;21885;-72
2021/06/26 07:33:48;;;;;;;7.60;5.13;;;;;;;28.92;50.88;100106.77;1693536;83;21092;-71
2021/06/26 07:36:14;;;;;;;10.43;6.03;;;;;;;28.94;50.78;100105.81;1698221;84;21582;-70
2021/06/26 07:38:43;;;;;;;8.80;5.77;;;;;;;28.96;50.68;100096.59;1638889;85;21669;-73
2021/06/26 07:41:09;;;;;;;8.73;5.23;;;;;;;29.05;50.30;100092.86;1674117;83;21121;-71
2021/06/26 07:43:36;;;;;;;8.77;5.60;;;;;;;29.14;50.55;100097.38;1688856;84;21041;-72
2021/06/26 07:46:03;;;;;;;9.33;5.73;;;;;;;29.28;50.24;100096.56;1698357;82;21091;-72
2021/06/26 07:48:30;;;;;;;10.80;5.87;;;;;;;29.38;49.99;100098.52;1694966;82;21087;-72
2021/06/26 07:50:57;;;;;;;8.57;5.67;;;;;;;29.52;50.10;100100.47;1692615;84;21594;-72
2021/06/26 07:53:25;;;;;;;10.83;6.00;;;;;;;29.63;49.72;100098.48;1697673;84;21139;-74
2021/06/26 07:55:54;;;;;;;7.83;5.53;;;;;;;29.77;49.51;100095.50;1684273;82;21547;-72
2021/06/26 07:58:25;;;;;;;9.88;5.70;;;;;;;29.94;49.58;100094.64;1686182;82;21056;-72
2021/06/26 08:00:54;;;;;;;10.15;5.17;;;;;;;30.11;49.94;100102.65;1688555;84;21064;-72
2021/06/26 08:03:21;;;;;;;12.98;5.90;;;;;;;30.24;49.18;100105.73;1692753;83;21131;-72
2021/06/26 08:05:48;;;;;;;8.13;5.30;;;;;;;30.41;48.36;100109.00;1700486;84;21080;-75
2021/06/26 08:08:15;;;;;;;10.20;5.55;;;;;;;30.51;48.13;100099.10;1699271;81;21484;-72
2021/06/26 08:10:44;;;;;;;9.38;5.97;;;;;;;30.59;47.94;100098.63;1692190;83;21064;-71
2021/06/26 08:13:15;;;;;;;8.50;5.45;;;;;;;30.68;47.53;100098.78;1694815;84;21606;-71
2021/06/26 08:15:43;;;;;;;10.43;5.60;;;;;;;30.74;47.63;100102.68;1698335;83;21254;-71
2021/06/26 08:18:11;;;;;;;9.08;5.70;;;;;;;30.79;47.48;100099.50;1694689;82;21128;-71
2021/06/26 08:20:38;;;;;;;8.80;5.72;;;;;;;30.89;47.32;100095.88;1700907;84;21581;-71
2021/06/26 08:23:05;;;;;;;11.30;5.25;;;;;;;31.01;47.44;100086.33;1697325;82;21095;-71
2021/06/26 08:25:32;;;;;;;8.98;5.67;;;;;;;31.18;47.34;100084.59;1689084;83;21100;-71
2021/06/26 08:27:59;;;;;;;10.85;5.72;;;;;;;31.33;46.47;100079.16;1695403;83;21487;-72
2021/06/26 08:30:26;;;;;;;8.63;5.10;;;;;;;31.44;46.28;100078.44;1698152;82;21121;-72
2021/06/26 08:32:53;;;;;;;8.75;5.35;;;;;;;31.54;46.15;100078.91;1635127;85;21509;-71
2021/06/26 08:35:20;;;;;;;9.68;4.87;;;;;;;31.64;46.29;100073.69;1633652;85;21049;-71
2021/06/26 08:37:48;;;;;;;11.28;5.53;;;;;;;31.73;44.77;100073.38;1650800;86;21068;-71
2021/06/26 08:40:15;;;;;;;9.10;5.35;;;;;;;31.81;44.61;100075.44;1643620;85;21115;-71
2021/06/26 08:42:43;;;;;;;7.80;5.15;;;;;;;31.87;44.09;100076.55;1647534;85;21131;-72
2021/06/26 08:45:14;;;;;;;7.20;4.83;;;;;;;31.95;44.19;100078.06;1649732;85;21102;-73
2021/06/26 08:47:40;;;;;;;7.17;4.95;;;;;;;31.98;44.05;100070.33;1638733;85;21099;-72
2021/06/26 08:50:09;;;;;;;7.72;4.90;;;;;;;32.05;44.20;100078.31;1704436;81;21051;-71
2021/06/26 08:52:35;;;;;;;8.08;4.95;;;;;;;32.20;44.02;100078.31;1698125;83;21538;-71
2021/06/26 08:55:02;;;;;;;8.93;5.40;;;;;;;32.40;44.35;100074.27;1673192;84;21135;-72
2021/06/26 08:57:35;;;;;;;6.12;5.03;;;;;;;32.57;43.43;100075.23;1695492;84;21439;-73
2021/06/26 09:00:07;;;;;;;8.93;5.22;;;;;;;32.75;43.29;100068.05;1693285;82;21511;-71
2021/06/26 09:02:33;;;;;;;6.45;4.92;;;;;;;32.88;42.62;100068.40;1692720;84;21092;-71
2021/06/26 09:05:03;;;;;;;11.15;4.65;;;;;;;32.87;42.69;100066.84;1691761;82;21068;-72
2021/06/26 09:07:32;;;;;;;9.48;4.67;;;;;;;32.84;43.35;100062.73;1672631;84;21148;-72
2021/06/26 09:10:12;;;;;;;6.28;4.80;;;;;;;32.60;42.38;100064.72;1687446;82;21167;-72
2021/06/26 09:12:41;;;;;;;8.63;5.12;;;;;;;32.43;43.25;100061.81;1697452;81;21092;-72
2021/06/26 09:15:12;;;;;;;7.10;5.03;;;;;;;32.43;43.25;100061.81;1696445;83;21119;-76
2021/06/26 09:17:39;;;;;;;12.20;5.30;;;;;;;32.31;43.27;100062.35;1683497;84;21062;-73
2021/06/26 09:20:09;;;;;;;8.48;5.00;;;;;;;32.20;43.92;100058.97;1697033;82;21803;-72
2021/06/26 09:22:45;;;;;;;7.20;5.08;;;;;;;32.13;43.95;100054.33;1692925;83;21096;-72
2021/06/26 09:25:36;;;;;;;11.43;5.50;;;;;;;32.03;44.34;100053.11;1692662;84;21119;-71
2021/06/26 09:28:07;;;;;;;6.08;5.05;;;;;;;31.96;44.45;100047.86;1676387;84;21116;-71
2021/06/26 09:30:37;;;;;;;7.22;5.08;;;;;;;31.89;44.70;100051.33;1692301;82;21127;-73
2021/06/26 09:33:16;;;;;;;8.58;5.42;;;;;;;31.89;45.43;100049.34;1695902;82;21547;-71
2021/06/26 09:35:49;;;;;;;11.18;5.83;;;;;;;31.95;45.59;100047.69;1700081;82;21092;-72
2021/06/26 09:38:16;;;;;;;7.80;6.08;;;;;;;31.99;45.76;100043.49;1691452;84;21156;-74
2021/06/26 09:40:43;;;;;;;11.08;6.03;;;;;;;32.02;45.58;100045.42;1705899;82;21377;-72
2021/06/26 09:43:13;;;;;;;10.63;5.95;;;;;;;32.03;45.32;100046.20;1707155;82;21220;-72
2021/06/26 09:45:40;;;;;;;7.87;5.65;;;;;;;32.06;45.38;100044.77;1704370;83;21134;-72
2021/06/26 09:48:08;;;;;;;11.30;5.50;;;;;;;32.15;45.30;100043.66;1692500;84;21145;-71
2021/06/26 09:50:38;;;;;;;12.15;5.85;;;;;;;32.20;45.30;100045.94;1688387;82;21084;-71
2021/06/26 09:53:05;;;;;;;8.18;6.30;;;;;;;32.30;45.00;100044.22;1691820;84;21036;-72
2021/06/26 09:55:36;;;;;;;8.80;6.05;;;;;;;32.30;45.18;100037.30;1693992;82;21182;-71
2021/06/26 09:58:10;;;;;;;8.50;6.40;;;;;;;32.34;45.88;100046.31;1697715;83;21064;-74
2021/06/26 10:00:38;;;;;;;9.10;6.50;;;;;;;32.37;45.60;100039.17;1701120;82;21083;-71
2021/06/26 10:03:05;;;;;;;10.68;6.35;;;;;;;32.49;45.28;100037.25;1697217;82;21103;-72
2021/06/26 10:05:32;;;;;;;10.68;6.15;;;;;;;32.56;45.50;100034.97;1692677;84;21098;-71
2021/06/26 10:08:04;;;;;;;7.78;6.30;;;;;;;32.63;45.06;100041.76;1689005;83;21056;-71
2021/06/26 10:10:30;;;;;;;11.18;5.90;;;;;;;32.58;44.79;100040.87;1701645;82;21103;-72
2021/06/26 10:12:57;;;;;;;9.70;5.78;;;;;;;32.61;45.09;100040.00;1700288;84;21673;-72
2021/06/26 10:15:27;;;;;;;8.43;5.78;;;;;;;32.72;45.41;100045.38;1700660;84;21606;-71
2021/06/26 10:17:54;;;;;;;8.65;5.97;;;;;;;32.78;44.86;100030.65;1691201;84;21664;-71
2021/06/26 10:20:23;;;;;;;8.03;6.10;;;;;;;32.84;45.38;100029.54;1703455;82;21077;-71
2021/06/26 10:23:00;;;;;;;7.20;5.30;;;;;;;32.98;44.29;100027.17;1695846;83;21052;-72
2021/06/26 10:25:39;;;;;;;6.95;5.62;;;;;;;33.08;43.35;100031.12;1691486;83;21143;-71
2021/06/26 10:28:16;;;;;;;8.58;5.45;;;;;;;33.18;43.60;100025.20;1671889;84;21040;-72
2021/06/26 10:30:43;;;;;;;7.65;4.97;;;;;;;33.22;42.09;100030.67;1712628;81;21143;-72
2021/06/26 10:33:11;;;;;;;8.38;5.70;;;;;;;33.11;42.21;100027.51;1659848;83;21143;-72
2021/06/26 10:35:51;;;;;;;6.95;4.80;;;;;;;33.01;42.21;100020.80;1715600;82;22025;-72
2021/06/26 10:38:18;;;;;;;6.92;5.12;;;;;;;32.93;42.35;100009.03;1687439;82;21031;-72
2021/06/26 10:40:54;;;;;;;7.28;5.75;;;;;;;32.92;42.48;99996.41;1699799;82;21099;-72
2021/06/26 10:43:31;;;;;;;8.38;4.85;;;;;;;32.98;42.28;99996.74;1681893;82;21010;-72
2021/06/26 10:46:15;;;;;;;9.10;5.00;;;;;;;33.02;42.93;99996.06;1664743;84;21123;-73
2021/06/26 10:48:54;;;;;;;8.73;5.65;;;;;;;33.12;42.49;99993.09;1703904;83;21221;-72
2021/06/26 10:51:39;;;;;;;9.65;5.45;;;;;;;33.18;42.18;99979.55;1664992;83;21357;-74
2021/06/26 10:54:18;;;;;;;6.15;4.97;;;;;;;33.28;42.50;99979.16;1648807;86;21076;-73
2021/06/26 10:56:49;;;;;;;10.13;5.08;;;;;;;33.39;42.01;99971.41;1680965;84;21112;-72
2021/06/26 10:59:19;;;;;;;7.65;5.03;;;;;;;33.48;41.32;99970.84;1682236;85;21699;-72
2021/06/26 11:01:56;;;;;;;8.28;5.10;;;;;;;33.51;41.93;99975.55;1638237;84;21129;-72
2021/06/26 11:04:23;;;;;;;6.30;5.15;;;;;;;33.62;41.44;99969.94;1639224;85;21069;-71
2021/06/26 11:06:51;;;;;;;10.10;5.45;;;;;;;33.67;41.07;99966.51;1672004;85;21063;-77
2021/06/26 11:09:17;;;;;;;8.45;5.20;;;;;;;33.67;41.07;99966.51;1657377;85;21104;-75
2021/06/26 11:11:48;;;;;;;10.18;5.35;;;;;;;33.52;41.53;99972.95;1626501;85;21091;-71
2021/06/26 11:14:20;;;;;;;7.60;5.37;;;;;;;33.52;41.53;99972.95;1654249;85;27715;-72
2021/06/26 11:16:54;;;;;;;7.80;5.17;;;;;;;33.53;41.88;99970.34;1654186;84;21148;-74
2021/06/26 11:19:24;;;;;;;6.75;4.97;;;;;;;33.60;40.01;99972.98;1645072;86;21516;-71
2021/06/26 11:21:52;;;;;;;8.95;5.20;;;;;;;33.58;40.29;99972.63;1638949;85;21103;-74
2021/06/26 11:24:21;;;;;;;8.80;5.03;;;;;;;33.67;41.01;99979.75;1648104;86;21106;-72
2021/06/26 11:26:54;;;;;;;7.42;5.30;;;;;;;33.74;40.95;99967.12;1664087;85;21157;-71
2021/06/26 11:29:35;;;;;;;5.28;4.70;;;;;;;33.72;40.08;99961.83;1634799;86;21154;-73